Terminal Aerodrome Forecast
Issued by NWS

Home | Current Version | Previous Version | Text Only | Print | Product List | Glossary Off
Versions: 1 2 3 4 5 6 7 8 9 10 11 12 13 14 15

413
FTUS43 KGRB 241529 AAB
TAFAUW
TAF AMD
KAUW 241529Z 2415/2512 29012G18KT P6SM BKN028 BKN035
      TEMPO 2421/2424 -SHRA BKN025
     FM250000 29006KT P6SM SCT030 BKN060
      TEMPO 2500/2504 -SHRA BKN030
     FM250800 28005KT P6SM BKN019=

USA.gov is the U.S. government's official web portal to all federal, state and local government web resources and services.